Time;durP1;ratioP1;P1;durP2;ratioP2;P2;SDS_P1;SDS_P2;PMS_P1;PMS_P2;Temp;Humidity;BMP_temperature;BMP_pressure;BME280_temperature;BME280_humidity;BME280_pressure;Samples;Min_cycle;Max_cycle;Signal;HPM_P1;HPM_P2
2023/10/15 00:00:59;;;;;;;1.70;0.90;;;;;;;6.76;100.00;101870.56;6223917;23;20811;-81
2023/10/15 00:03:25;;;;;;;4.35;0.75;;;;;;;6.79;100.00;101882.25;6219663;23;20020;-80
2023/10/15 00:05:52;;;;;;;2.72;1.00;;;;;;;6.78;100.00;101889.44;6219845;23;20020;-80
2023/10/15 00:08:18;;;;;;;1.08;0.70;;;;;;;6.77;100.00;101890.59;6220687;23;20399;-80
2023/10/15 00:10:46;;;;;;;0.63;0.55;;;;;;;6.78;100.00;101892.09;6220071;23;20024;-81
2023/10/15 00:13:13;;;;;;;1.63;0.90;;;;;;;6.80;100.00;101889.78;6220042;23;20020;-82
2023/10/15 00:15:40;;;;;;;2.15;0.70;;;;;;;6.82;100.00;101863.69;6220031;23;20017;-81
2023/10/15 00:18:09;;;;;;;2.55;0.80;;;;;;;6.82;100.00;101844.41;6193281;23;20036;-80
2023/10/15 00:20:40;;;;;;;1.40;0.65;;;;;;;6.80;100.00;101842.16;6219336;23;20017;-79
2023/10/15 00:23:09;;;;;;;0.93;0.75;;;;;;;6.79;100.00;101845.22;6192436;23;20021;-79
2023/10/15 00:25:37;;;;;;;2.03;0.80;;;;;;;6.81;100.00;101837.59;6219520;23;20068;-79
2023/10/15 00:28:11;;;;;;;2.42;0.70;;;;;;;6.77;100.00;101839.53;6219963;23;20404;-79
2023/10/15 00:30:39;;;;;;;1.30;0.60;;;;;;;6.71;100.00;101831.25;6167555;23;20029;-80
2023/10/15 00:33:07;;;;;;;5.13;1.23;;;;;;;6.66;100.00;101821.81;6192442;23;20075;-80
2023/10/15 00:35:34;;;;;;;1.75;0.90;;;;;;;6.65;100.00;101836.19;6192387;23;20024;-79
2023/10/15 00:38:11;;;;;;;1.60;0.93;;;;;;;6.66;100.00;101832.41;6219631;23;20056;-79
2023/10/15 00:40:38;;;;;;;2.65;1.10;;;;;;;6.61;100.00;101821.47;6219364;23;20096;-79
2023/10/15 00:43:05;;;;;;;1.13;0.75;;;;;;;6.58;100.00;101816.94;6219892;23;20020;-79
2023/10/15 00:45:44;;;;;;;2.22;0.82;;;;;;;6.55;100.00;101809.78;6193335;23;20017;-79
2023/10/15 00:48:24;;;;;;;1.65;1.00;;;;;;;6.54;100.00;101814.31;6193047;23;20013;-79
2023/10/15 00:50:53;;;;;;;1.23;0.90;;;;;;;6.49;100.00;101814.72;6219344;23;20075;-79
2023/10/15 00:53:24;;;;;;;1.60;0.98;;;;;;;6.46;100.00;101815.47;6192045;23;20029;-79
2023/10/15 00:56:04;;;;;;;2.95;0.90;;;;;;;6.48;100.00;101817.75;6219816;23;20017;-79
2023/10/15 00:58:39;;;;;;;2.20;1.17;;;;;;;6.51;100.00;101814.31;6192157;23;20096;-80
2023/10/15 01:03:53;;;;;;;2.63;0.80;;;;;;;6.51;100.00;101816.97;6219373;23;20013;-80
2023/10/15 01:06:38;;;;;;;2.78;0.80;;;;;;;6.53;100.00;101827.94;6192312;23;20072;-80
2023/10/15 01:09:19;;;;;;;2.72;1.20;;;;;;;6.55;100.00;101825.66;6193042;23;20021;-80
2023/10/15 01:12:03;;;;;;;;;;;;;;;6.54;100.00;101826.78;6219755;23;20024;-79
2023/10/15 01:14:43;;;;;;;2.15;0.90;;;;;;;6.54;100.00;101843.41;6192967;23;20327;-79
2023/10/15 01:17:11;;;;;;;3.28;1.00;;;;;;;6.51;100.00;101836.25;6219231;23;20013;-79
2023/10/15 01:19:38;;;;;;;3.90;0.90;;;;;;;6.52;100.00;101839.66;6191982;23;20025;-79
2023/10/15 01:22:07;;;;;;;5.68;0.93;;;;;;;6.52;100.00;101843.03;6219717;23;20077;-79
2023/10/15 01:24:37;;;;;;;2.67;0.90;;;;;;;6.54;100.00;101851.34;6219379;23;20013;-79
2023/10/15 01:27:10;;;;;;;3.83;0.90;;;;;;;6.56;100.00;101854.38;6219485;23;20052;-79
2023/10/15 01:29:42;;;;;;;2.60;0.80;;;;;;;6.55;100.00;101841.53;6219083;23;20020;-80
2023/10/15 01:32:19;;;;;;;2.40;0.82;;;;;;;6.56;100.00;101840.38;6219476;23;20017;-80
2023/10/15 01:34:48;;;;;;;1.42;0.77;;;;;;;6.58;100.00;101828.28;6167613;23;20470;-79
2023/10/15 01:39:51;;;;;;;1.88;0.70;;;;;;;6.59;100.00;101815.81;6193057;23;20021;-79
2023/10/15 01:44:58;;;;;;;1.58;0.93;;;;;;;6.57;100.00;101788.97;6219619;23;20013;-79
2023/10/15 01:47:35;;;;;;;0.73;0.60;;;;;;;6.57;100.00;101778.41;6218719;23;20080;-79
2023/10/15 01:50:08;;;;;;;3.90;1.42;;;;;;;6.57;100.00;101781.78;6219751;23;20095;-79
2023/10/15 01:52:44;;;;;;;0.60;0.60;;;;;;;6.59;100.00;101784.81;6219149;23;20024;-79
2023/10/15 01:55:13;;;;;;;2.92;0.80;;;;;;;6.59;100.00;101784.81;6192480;23;20052;-79
2023/10/15 01:57:41;;;;;;;3.03;0.60;;;;;;;6.63;100.00;101785.53;6218702;23;20013;-79
2023/10/15 02:00:33;;;;;;;3.75;0.80;;;;;;;6.62;100.00;101786.69;6192177;23;20037;-79
2023/10/15 02:03:00;;;;;;;1.65;0.68;;;;;;;6.60;100.00;101782.91;6219046;23;20084;-79
2023/10/15 02:05:41;;;;;;;0.75;0.60;;;;;;;6.60;100.00;101777.63;6218601;23;20419;-79
2023/10/15 02:08:12;;;;;;;1.42;0.80;;;;;;;6.61;100.00;101771.94;6218940;23;20024;-80
2023/10/15 02:10:46;;;;;;;0.57;0.50;;;;;;;6.60;100.00;101782.91;6218620;23;20027;-79
2023/10/15 02:13:16;;;;;;;0.50;0.50;;;;;;;6.60;100.00;101785.56;6218999;23;20021;-79
2023/10/15 02:15:43;;;;;;;2.08;0.50;;;;;;;6.57;100.00;101788.97;6192733;23;20076;-79
2023/10/15 02:18:14;;;;;;;0.50;0.50;;;;;;;6.53;100.00;101786.34;6191748;23;20032;-80
2023/10/15 02:20:45;;;;;;;1.95;0.55;;;;;;;6.51;100.00;101780.69;6192701;23;20021;-80
2023/10/15 02:23:12;;;;;;;1.52;0.50;;;;;;;6.48;100.00;101770.88;6219120;23;20407;-80
2023/10/15 02:25:57;;;;;;;0.80;0.30;;;;;;;6.45;100.00;101763.72;6219040;23;20529;-80
2023/10/15 02:28:27;;;;;;;0.57;0.40;;;;;;;6.42;100.00;101776.94;6191950;23;20072;-80
2023/10/15 02:31:14;;;;;;;1.65;0.43;;;;;;;6.38;100.00;101773.59;6218378;23;20045;-79
2023/10/15 02:33:42;;;;;;;1.00;0.50;;;;;;;6.34;100.00;101781.53;6192254;23;20025;-79
2023/10/15 02:36:09;;;;;;;1.67;0.30;;;;;;;6.30;100.00;101784.19;6191959;23;20017;-79
2023/10/15 02:38:38;;;;;;;0.73;0.40;;;;;;;6.27;100.00;101784.97;6192166;23;20469;-79
2023/10/15 02:41:08;;;;;;;1.35;0.40;;;;;;;6.27;100.00;101771.00;6219415;23;20431;-79
2023/10/15 02:43:48;;;;;;;1.33;0.60;;;;;;;6.28;100.00;101770.59;6192384;23;20074;-79
2023/10/15 02:49:00;;;;;;;1.15;0.35;;;;;;;6.26;100.00;101777.41;6192327;23;20107;-79
2023/10/15 02:51:27;;;;;;;0.50;0.47;;;;;;;6.25;100.00;101773.25;6191719;23;20017;-79
2023/10/15 02:53:54;;;;;;;2.15;0.52;;;;;;;6.24;100.00;101767.22;6218708;23;20017;-79
2023/10/15 02:56:22;;;;;;;1.75;0.50;;;;;;;6.21;100.00;101765.34;6191407;23;20045;-79
2023/10/15 02:58:50;;;;;;;2.53;0.68;;;;;;;6.19;100.00;101762.31;6192256;23;20013;-80
2023/10/15 03:01:17;;;;;;;1.48;0.40;;;;;;;6.16;100.00;101767.63;6191825;23;20429;-79
2023/10/15 03:03:49;;;;;;;0.35;0.35;;;;;;;6.15;100.00;101779.34;6192145;23;20025;-80
2023/10/15 03:06:24;;;;;;;;;;;;;;;6.14;100.00;101780.47;6217779;23;20021;-79
2023/10/15 03:08:51;;;;;;;0.80;0.40;;;;;;;6.13;100.00;101781.59;6219264;23;19951;-80
2023/10/15 03:11:20;;;;;;;1.40;0.50;;;;;;;6.11;100.00;101789.91;6218270;23;20559;-81
2023/10/15 03:14:00;;;;;;;3.35;0.50;;;;;;;6.10;100.00;101806.16;6219221;23;20024;-80
2023/10/15 03:16:30;;;;;;;8.85;0.73;;;;;;;6.11;100.00;101820.91;6218330;23;20503;-80
2023/10/15 03:19:06;;;;;;;0.43;0.35;;;;;;;6.09;100.00;101834.50;6218918;23;20013;-79
2023/10/15 03:21:38;;;;;;;0.45;0.40;;;;;;;6.11;100.00;101852.63;6192059;23;20478;-79
2023/10/15 03:24:06;;;;;;;0.40;0.40;;;;;;;6.12;100.00;101854.88;6218930;23;20020;-81
2023/10/15 03:26:34;;;;;;;3.75;0.50;;;;;;;6.15;100.00;101871.88;6218635;23;20024;-79
2023/10/15 03:29:07;;;;;;;0.95;0.73;;;;;;;6.15;100.00;101885.09;6191898;23;20414;-80
2023/10/15 03:31:36;;;;;;;0.90;0.52;;;;;;;6.16;100.00;101891.88;6191742;23;20056;-81
2023/10/15 03:34:14;;;;;;;1.65;0.40;;;;;;;6.18;100.00;101905.50;6218798;23;20027;-80
2023/10/15 03:39:24;;;;;;;1.92;0.50;;;;;;;6.25;100.00;101881.69;6218545;23;20017;-81
2023/10/15 03:41:54;;;;;;;2.08;0.73;;;;;;;6.26;100.00;101883.19;6218945;23;20055;-80
2023/10/15 03:44:27;;;;;;;1.95;0.55;;;;;;;6.25;100.00;101857.88;6217642;23;20021;-79
2023/10/15 03:47:04;;;;;;;2.28;0.45;;;;;;;6.25;100.00;101847.31;6218627;23;20020;-80
2023/10/15 03:49:31;;;;;;;6.28;0.60;;;;;;;6.24;100.00;101833.31;6218051;23;20510;-79
2023/10/15 03:51:58;;;;;;;3.22;0.50;;;;;;;6.25;100.00;101834.09;6218767;23;20013;-79
2023/10/15 03:54:25;;;;;;;0.28;0.20;;;;;;;6.28;100.00;101830.69;6217949;23;20114;-79
2023/10/15 03:56:52;;;;;;;1.65;0.77;;;;;;;6.28;100.00;101834.06;6218669;23;20009;-79
2023/10/15 03:59:19;;;;;;;1.63;0.40;;;;;;;6.26;100.00;101828.41;6218021;23;20404;-79
2023/10/15 04:01:49;;;;;;;3.15;0.50;;;;;;;6.27;100.00;101835.22;6218470;23;20117;-79
2023/10/15 04:04:17;;;;;;;1.13;0.40;;;;;;;6.27;100.00;101851.06;6218168;23;20473;-80
2023/10/15 04:06:52;;;;;;;0.60;0.40;;;;;;;6.26;100.00;101862.03;6220102;23;20024;-80
2023/10/15 04:09:26;;;;;;;0.40;0.40;;;;;;;6.23;100.00;101865.44;6219428;23;20092;-80
2023/10/15 04:11:52;;;;;;;0.90;0.45;;;;;;;6.19;100.00;101876.03;6219096;23;20013;-81
2023/10/15 04:14:32;;;;;;;1.48;0.60;;;;;;;6.16;100.00;101887.34;6219818;23;20021;-80
2023/10/15 04:16:59;;;;;;;0.52;0.52;;;;;;;6.15;100.00;101883.19;6193761;23;20013;-80
2023/10/15 04:19:27;;;;;;;0.43;0.43;;;;;;;6.18;100.00;101876.41;6192799;23;20017;-79
2023/10/15 04:22:00;;;;;;;3.75;0.68;;;;;;;6.17;100.00;101854.50;6219984;23;20089;-80
2023/10/15 04:24:42;;;;;;;0.70;0.60;;;;;;;6.16;100.00;101849.59;6219271;23;20017;-79
2023/10/15 04:27:18;;;;;;;3.53;0.75;;;;;;;6.14;100.00;101865.06;6218893;23;20024;-79
2023/10/15 04:29:52;;;;;;;1.45;0.60;;;;;;;6.13;100.00;101848.47;6220038;23;20021;-79
2023/10/15 04:32:28;;;;;;;7.03;1.05;;;;;;;6.09;100.00;101846.97;6219703;23;20020;-79
2023/10/15 04:35:05;;;;;;;0.57;0.45;;;;;;;6.06;100.00;101848.47;6219971;23;20056;-79
2023/10/15 04:37:36;;;;;;;2.00;0.70;;;;;;;6.07;100.00;101838.66;6219552;23;20013;-79
2023/10/15 04:40:11;;;;;;;1.08;0.68;;;;;;;6.08;100.00;101838.28;6220007;23;20347;-80
2023/10/15 04:42:51;;;;;;;0.60;0.45;;;;;;;6.06;100.00;101819.38;6219475;23;20017;-79
2023/10/15 04:45:44;;;;;;;0.68;0.55;;;;;;;6.05;100.00;101835.63;6219305;23;20024;-79
2023/10/15 04:48:15;;;;;;;0.70;0.45;;;;;;;6.02;100.00;101834.50;6219610;23;20414;-80
2023/10/15 04:50:43;;;;;;;0.93;0.80;;;;;;;5.98;100.00;101837.19;6219514;23;20049;-80
2023/10/15 04:53:23;;;;;;;1.67;0.60;;;;;;;5.93;100.00;101839.44;6192275;23;20072;-80
2023/10/15 04:55:52;;;;;;;0.70;0.70;;;;;;;5.88;100.00;101837.91;6219254;23;20017;-80
2023/10/15 04:58:20;;;;;;;1.60;0.60;;;;;;;5.86;100.00;101836.78;6219556;23;20351;-79
2023/10/15 05:00:48;;;;;;;1.15;0.38;;;;;;;5.84;100.00;101844.34;6219805;23;20148;-80
2023/10/15 05:03:16;;;;;;;2.25;0.50;;;;;;;5.82;100.00;101847.34;6219369;23;20549;-80
2023/10/15 05:05:43;;;;;;;4.57;0.80;;;;;;;5.81;100.00;101847.75;6192865;23;20017;-80
2023/10/15 05:08:11;;;;;;;0.70;0.55;;;;;;;5.80;100.00;101838.31;6219245;23;20041;-80
2023/10/15 05:10:44;;;;;;;2.92;0.77;;;;;;;5.78;100.00;101841.31;6218293;23;20501;-80
2023/10/15 05:13:12;;;;;;;0.93;0.57;;;;;;;5.77;100.00;101839.06;6219304;23;20044;-80
2023/10/15 05:15:42;;;;;;;2.45;0.80;;;;;;;5.74;100.00;101848.50;6219130;23;20024;-80
2023/10/15 05:18:09;;;;;;;0.50;0.50;;;;;;;5.73;100.00;101856.78;6219556;23;20072;-80
2023/10/15 05:20:36;;;;;;;3.30;0.60;;;;;;;5.74;100.00;101860.94;6219664;23;20052;-80
2023/10/15 05:23:03;;;;;;;0.70;0.60;;;;;;;5.76;100.00;101869.25;6193185;23;20017;-80
2023/10/15 05:25:30;;;;;;;1.27;0.60;;;;;;;5.79;100.00;101876.44;6191384;23;20467;-80
2023/10/15 05:27:59;;;;;;;1.40;0.50;;;;;;;5.80;100.00;101880.56;6192548;23;20021;-80
2023/10/15 05:30:26;;;;;;;4.20;0.68;;;;;;;5.78;100.00;101886.25;6218876;23;20407;-82
2023/10/15 05:32:53;;;;;;;3.30;0.63;;;;;;;5.81;100.00;101860.94;6219697;23;20048;-80
2023/10/15 05:35:19;;;;;;;2.58;0.60;;;;;;;5.84;100.00;101849.63;6219031;23;20025;-79
2023/10/15 05:37:46;;;;;;;4.88;0.70;;;;;;;5.84;100.00;101853.03;6220050;23;20036;-79
2023/10/15 05:40:13;;;;;;;1.15;0.50;;;;;;;5.84;100.00;101849.63;6218633;23;20101;-79
2023/10/15 05:42:39;;;;;;;0.93;0.63;;;;;;;5.81;100.00;101853.03;6219311;23;20013;-80
2023/10/15 05:45:08;;;;;;;2.70;0.60;;;;;;;5.77;100.00;101853.03;6192603;23;20079;-80
2023/10/15 05:47:35;;;;;;;1.77;0.63;;;;;;;5.73;100.00;101840.94;6192436;23;20378;-80
2023/10/15 05:50:06;;;;;;;1.83;0.70;;;;;;;5.70;100.00;101850.38;6219591;23;20027;-80
2023/10/15 05:52:32;;;;;;;1.13;0.60;;;;;;;5.64;100.00;101844.72;6193228;23;20013;-79
2023/10/15 05:55:00;;;;;;;1.60;0.50;;;;;;;5.61;100.00;101853.41;6220459;23;20096;-80
2023/10/15 05:57:28;;;;;;;1.67;1.00;;;;;;;5.57;100.00;101850.03;6192147;23;20048;-79
2023/10/15 05:59:56;;;;;;;0.80;0.80;;;;;;;5.55;100.00;101860.22;6221891;23;20017;-80
2023/10/15 06:02:23;;;;;;;7.50;1.40;;;;;;;5.54;100.00;101865.88;6222841;23;20013;-80
2023/10/15 06:04:49;;;;;;;1.65;0.90;;;;;;;5.54;100.00;101882.47;6229156;23;20917;-79
2023/10/15 06:07:16;;;;;;;1.50;0.70;;;;;;;5.56;100.00;101885.50;6202431;23;20022;-82
2023/10/15 06:09:45;;;;;;;0.82;0.70;;;;;;;5.57;100.00;101889.66;6226855;23;20013;-78
2023/10/15 06:12:13;;;;;;;1.38;0.57;;;;;;;5.56;100.00;101888.13;6193320;23;20095;-82
2023/10/15 06:14:40;;;;;;;2.40;0.63;;;;;;;5.57;100.00;101896.81;6167829;23;20028;-82
2023/10/15 06:17:07;;;;;;;2.72;0.50;;;;;;;5.56;100.00;101911.91;6218727;23;20043;-79
2023/10/15 06:19:34;;;;;;;2.35;0.60;;;;;;;5.55;100.00;101926.25;6219052;23;20044;-79
2023/10/15 06:22:01;;;;;;;1.58;0.45;;;;;;;5.54;100.00;101929.25;6219496;23;20024;-79
2023/10/15 06:24:27;;;;;;;1.27;0.50;;;;;;;5.55;100.00;101938.69;6191083;23;20020;-78
2023/10/15 06:26:54;;;;;;;2.20;0.88;;;;;;;5.55;100.00;101926.25;6192712;23;20036;-78
2023/10/15 06:29:21;;;;;;;5.18;0.85;;;;;;;5.57;100.00;101918.72;6217734;23;20104;-79
2023/10/15 06:31:47;;;;;;;3.45;0.77;;;;;;;5.59;100.00;101918.34;6219243;23;20100;-78
2023/10/15 06:34:15;;;;;;;3.95;0.60;;;;;;;5.61;100.00;101926.59;6192611;23;20021;-79
2023/10/15 06:36:42;;;;;;;1.63;0.90;;;;;;;5.59;100.00;101931.53;6219396;23;20040;-84
2023/10/15 06:39:09;;;;;;;0.50;0.50;;;;;;;5.60;100.00;101939.06;6167130;23;20398;-81
2023/10/15 06:41:36;;;;;;;4.25;0.50;;;;;;;5.63;100.00;101945.47;6191974;23;20024;-81
2023/10/15 06:44:04;;;;;;;1.08;0.52;;;;;;;5.65;100.00;101946.63;6192138;23;20029;-80
2023/10/15 06:46:33;;;;;;;1.98;0.95;;;;;;;5.73;100.00;101942.09;6218599;23;20087;-83
2023/10/15 06:48:59;;;;;;;2.67;0.50;;;;;;;5.81;100.00;101940.22;6192944;23;20083;-78
2023/10/15 06:51:27;;;;;;;2.15;0.60;;;;;;;5.85;100.00;101952.31;6217864;23;20391;-80
2023/10/15 06:53:54;;;;;;;3.72;0.70;;;;;;;5.88;100.00;101951.56;6219237;23;20451;-78
2023/10/15 06:56:20;;;;;;;1.88;0.60;;;;;;;5.92;100.00;101943.66;6218371;23;20065;-77
2023/10/15 06:58:48;;;;;;;2.72;0.80;;;;;;;5.97;100.00;101943.28;6218877;23;20021;-78
2023/10/15 07:01:15;;;;;;;3.05;0.85;;;;;;;6.05;100.00;101954.59;6218614;23;20013;-78
2023/10/15 07:03:41;;;;;;;0.75;0.50;;;;;;;6.10;100.00;101952.31;6218713;23;20452;-77
2023/10/15 07:06:08;;;;;;;1.25;0.70;;;;;;;6.15;100.00;101961.78;6218186;23;20044;-78
2023/10/15 07:08:35;;;;;;;0.82;0.57;;;;;;;6.14;100.00;101957.63;6218787;23;20021;-79
2023/10/15 07:11:04;;;;;;;1.48;0.60;;;;;;;6.12;100.00;101970.44;6218441;23;20193;-79
2023/10/15 07:13:32;;;;;;;3.17;0.77;;;;;;;6.09;100.00;101982.53;6218543;23;20140;-77
2023/10/15 07:16:00;;;;;;;2.72;0.75;;;;;;;6.07;100.00;102003.31;6192004;23;20017;-77
2023/10/15 07:18:27;;;;;;;9.15;0.90;;;;;;;6.07;100.00;102024.47;6218219;23;20021;-77
2023/10/15 07:20:54;;;;;;;2.38;1.00;;;;;;;6.07;100.00;102023.72;6218511;23;20020;-77
2023/10/15 07:23:21;;;;;;;2.28;0.88;;;;;;;6.06;100.00;102016.91;6218470;23;20064;-77
2023/10/15 07:25:48;;;;;;;1.45;0.50;;;;;;;6.08;100.00;102012.00;6219155;23;20392;-78
2023/10/15 07:28:14;;;;;;;0.77;0.77;;;;;;;6.14;100.00;102013.13;6191379;23;20419;-80
2023/10/15 07:30:41;;;;;;;2.90;0.93;;;;;;;6.17;100.00;102025.59;6218399;23;20045;-80
2023/10/15 07:33:08;;;;;;;2.88;0.90;;;;;;;6.19;100.00;102026.75;6218356;23;20423;-79
2023/10/15 07:35:35;;;;;;;1.08;0.55;;;;;;;6.24;100.00;102015.78;6217656;23;20027;-79
2023/10/15 07:38:02;;;;;;;1.80;0.60;;;;;;;6.26;100.00;102021.47;6219074;23;20017;-79
2023/10/15 07:40:32;;;;;;;2.40;0.73;;;;;;;6.30;100.00;102014.28;6191894;23;20105;-79
2023/10/15 07:43:00;;;;;;;2.47;0.50;;;;;;;6.38;100.00;102015.03;6219976;23;20014;-79
2023/10/15 07:45:29;;;;;;;0.82;0.70;;;;;;;6.43;100.00;102022.56;6193125;23;20017;-79
2023/10/15 07:47:59;;;;;;;0.60;0.52;;;;;;;6.51;100.00;102020.69;6220324;23;20435;-79
2023/10/15 07:50:27;;;;;;;0.75;0.60;;;;;;;6.59;100.00;102030.13;6218830;23;20017;-78
2023/10/15 07:52:54;;;;;;;1.27;0.65;;;;;;;6.66;100.00;102036.16;6193860;23;20411;-79
2023/10/15 07:55:24;;;;;;;2.17;0.75;;;;;;;6.66;100.00;102035.41;6219707;23;20400;-78
2023/10/15 07:57:52;;;;;;;2.15;0.65;;;;;;;6.67;100.00;102045.59;6193354;23;20024;-79
2023/10/15 08:00:37;;;;;;;1.80;0.70;;;;;;;6.68;100.00;102062.25;6219742;23;20013;-79
2023/10/15 08:03:07;;;;;;;1.15;0.75;;;;;;;6.72;100.00;102067.53;6193260;23;20466;-80
2023/10/15 08:05:36;;;;;;;1.77;0.68;;;;;;;6.83;100.00;102065.59;6219106;23;20017;-80
2023/10/15 08:08:04;;;;;;;0.40;0.40;;;;;;;6.95;100.00;102042.13;6193107;23;20017;-83
2023/10/15 08:10:32;;;;;;;0.93;0.60;;;;;;;7.05;100.00;102034.56;6193376;23;20064;-82
2023/10/15 08:12:59;;;;;;;1.30;0.60;;;;;;;7.10;100.00;102032.28;6194858;23;20021;-81
2023/10/15 08:15:27;;;;;;;1.38;0.47;;;;;;;7.16;100.00;102030.75;6218559;23;20021;-81
2023/10/15 08:17:55;;;;;;;1.48;0.50;;;;;;;7.23;100.00;102043.19;6195224;23;20067;-81
2023/10/15 08:20:22;;;;;;;2.30;0.40;;;;;;;7.43;100.00;102046.13;6220073;23;20017;-81
2023/10/15 08:22:48;;;;;;;0.73;0.40;;;;;;;7.49;100.00;102040.06;6220994;23;20021;-82
2023/10/15 08:25:21;;;;;;;5.43;2.58;;;;;;;7.45;100.00;102046.50;6220136;23;20024;-85
2023/10/15 08:27:48;;;;;;;3.10;2.78;;;;;;;7.58;100.00;102055.53;6193563;23;20013;-78
2023/10/15 08:30:17;;;;;;;1.15;1.13;;;;;;;7.84;100.00;102054.25;6218933;23;20439;-80
2023/10/15 08:32:46;;;;;;;1.02;0.50;;;;;;;7.87;100.00;102058.78;6192237;23;20088;-81
2023/10/15 08:35:14;;;;;;;1.00;0.52;;;;;;;7.84;100.00;102064.84;6219011;23;20084;-78
2023/10/15 08:37:44;;;;;;;3.72;0.70;;;;;;;7.89;100.00;102065.19;6219810;23;20024;-81
2023/10/15 08:40:15;;;;;;;0.70;0.65;;;;;;;7.93;100.00;102065.94;6219449;23;20021;-80
2023/10/15 08:43:07;;;;;;;3.78;0.60;;;;;;;8.04;100.00;102073.81;6219511;23;20021;-81
2023/10/15 08:45:34;;;;;;;0.43;0.40;;;;;;;8.17;100.00;102066.91;6219485;23;20426;-84
2023/10/15 08:48:05;;;;;;;1.42;0.50;;;;;;;8.35;100.00;102072.09;6193444;23;20434;-83
2023/10/15 08:50:36;;;;;;;1.55;0.43;;;;;;;8.41;100.00;102078.47;6192343;23;20021;-83
2023/10/15 08:53:04;;;;;;;1.58;0.63;;;;;;;8.54;100.00;102079.53;6193589;23;20005;-83
2023/10/15 08:55:33;;;;;;;3.50;0.75;;;;;;;8.70;100.00;102092.28;6192296;23;20128;-82
2023/10/15 08:58:00;;;;;;;0.70;0.55;;;;;;;8.77;100.00;102094.88;6220389;23;20023;-86
2023/10/15 09:00:27;;;;;;;1.88;0.68;;;;;;;8.71;100.00;102108.97;6192161;23;20477;-76
2023/10/15 09:03:00;;;;;;;0.65;0.43;;;;;;;8.79;100.00;102113.06;6168675;23;20025;-79
2023/10/15 09:05:30;;;;;;;1.05;0.57;;;;;;;8.77;100.00;102126.75;6192588;23;20017;-79
2023/10/15 09:08:04;;;;;;;1.13;0.40;;;;;;;8.64;100.00;102129.13;6219747;23;20017;-79
2023/10/15 09:10:34;;;;;;;0.90;0.40;;;;;;;8.50;100.00;102131.88;6219186;23;20426;-81
2023/10/15 09:13:00;;;;;;;2.75;0.60;;;;;;;8.39;100.00;102139.19;6168083;23;20029;-79
2023/10/15 09:15:30;;;;;;;2.42;0.68;;;;;;;8.25;100.00;102149.84;6192252;23;20021;-80
2023/10/15 09:17:58;;;;;;;2.28;0.70;;;;;;;8.25;100.00;102144.53;6219191;23;20443;-78
2023/10/15 09:20:32;;;;;;;3.70;1.08;;;;;;;8.30;100.00;102142.22;6219157;23;20045;-78
2023/10/15 09:23:00;;;;;;;7.93;6.30;;;;;;;8.30;100.00;102141.47;6219682;23;20021;-81
2023/10/15 09:25:30;;;;;;;2.55;2.35;;;;;;;8.20;100.00;102137.75;6193894;23;20096;-80
2023/10/15 09:27:58;;;;;;;5.38;4.88;;;;;;;8.28;100.00;102144.53;6220468;23;20029;-80
2023/10/15 09:30:26;;;;;;;8.70;1.95;;;;;;;8.49;100.00;102148.19;6220021;23;20013;-82
2023/10/15 09:32:54;;;;;;;5.00;2.30;;;;;;;8.87;100.00;102163.03;6167749;23;20407;-79
2023/10/15 09:35:21;;;;;;;2.80;1.60;;;;;;;9.03;100.00;102171.25;6219171;23;20410;-80
2023/10/15 09:37:48;;;;;;;2.45;0.70;;;;;;;9.05;100.00;102175.41;6217848;23;20017;-78
2023/10/15 09:40:22;;;;;;;1.33;1.23;;;;;;;9.02;100.00;102175.06;6191727;23;20072;-78
2023/10/15 09:42:53;;;;;;;3.67;1.80;;;;;;;9.04;100.00;102174.66;6219523;23;20028;-82
2023/10/15 09:45:24;;;;;;;4.97;3.17;;;;;;;9.11;100.00;102171.94;6218892;23;20013;-82
2023/10/15 09:47:57;;;;;;;2.20;2.10;;;;;;;9.10;100.00;102164.38;6219684;23;20071;-82
2023/10/15 09:50:27;;;;;;;2.83;2.28;;;;;;;9.28;100.00;102172.91;6220194;23;20041;-82
2023/10/15 09:52:56;;;;;;;1.25;0.95;;;;;;;9.33;100.00;102161.84;6219778;23;20124;-84
2023/10/15 09:55:26;;;;;;;1.83;1.08;;;;;;;9.54;100.00;102158.22;6220299;23;20017;-76
2023/10/15 09:57:55;;;;;;;1.73;0.98;;;;;;;9.69;100.00;102170.19;6221582;23;20013;-81
2023/10/15 10:00:46;;;;;;;2.35;0.70;;;;;;;9.72;100.00;102173.94;6218295;23;20710;-82
2023/10/15 10:03:32;;;;;;;1.85;0.70;;;;;;;9.81;100.00;102176.88;6191964;23;20029;-80
2023/10/15 10:06:27;;;;;;;2.67;0.88;;;;;;;9.57;98.19;102176.78;6219585;23;20092;-81
2023/10/15 10:09:21;;;;;;;3.10;0.60;;;;;;;9.59;97.03;102179.81;6219124;23;20417;-80
2023/10/15 10:11:51;;;;;;;2.25;0.80;;;;;;;9.70;95.54;102179.66;6192200;23;20021;-81
2023/10/15 10:14:43;;;;;;;4.85;1.00;;;;;;;9.72;93.42;102190.66;6218947;23;20474;-81
2023/10/15 10:17:12;;;;;;;1.95;0.50;;;;;;;9.79;92.38;102190.56;6219164;23;20052;-81
2023/10/15 10:19:41;;;;;;;2.50;0.80;;;;;;;9.82;93.32;102195.09;6219082;23;20494;-81
2023/10/15 10:22:21;;;;;;;2.22;1.33;;;;;;;9.88;94.55;102198.06;6192638;23;20020;-81
2023/10/15 10:24:48;;;;;;;4.65;2.10;;;;;;;9.79;92.55;102195.91;6219330;23;20027;-81
2023/10/15 10:27:15;;;;;;;3.65;1.08;;;;;;;9.98;96.16;102194.53;6218904;23;20059;-82
2023/10/15 10:29:43;;;;;;;3.42;0.70;;;;;;;10.16;94.97;102202.28;6218499;23;20017;-79
2023/10/15 10:32:14;;;;;;;5.15;1.52;;;;;;;10.15;92.75;102206.84;6218879;23;20017;-84
2023/10/15 10:34:45;;;;;;;4.95;0.93;;;;;;;10.17;92.02;102209.09;6219097;23;20477;-85
2023/10/15 10:37:22;;;;;;;2.38;0.82;;;;;;;10.29;92.63;102212.00;6219244;23;20089;-82
2023/10/15 10:39:49;;;;;;;3.03;0.73;;;;;;;10.37;92.68;102207.34;6219297;23;20483;-80
2023/10/15 10:42:21;;;;;;;2.20;0.70;;;;;;;10.39;89.51;102209.59;6217742;23;20013;-79
2023/10/15 10:44:48;;;;;;;2.33;0.52;;;;;;;10.34;88.30;102218.78;6219131;23;20089;-81
2023/10/15 10:47:17;;;;;;;1.30;0.50;;;;;;;10.26;85.14;102204.06;6219173;23;20021;-81
2023/10/15 10:49:53;;;;;;;3.08;0.60;;;;;;;10.13;84.93;102225.09;6219104;23;20447;-79
2023/10/15 10:52:30;;;;;;;0.80;0.57;;;;;;;9.91;86.11;102240.59;6191847;23;20438;-81
2023/10/15 10:55:33;;;;;;;3.40;1.70;;;;;;;9.62;88.36;102236.72;6219591;23;20021;-79
2023/10/15 10:58:03;;;;;;;6.38;3.70;;;;;;;9.47;90.58;102233.47;6219286;23;20348;-80
2023/10/15 11:00:30;;;;;;;4.13;2.92;;;;;;;9.40;91.27;102246.06;6192626;23;20522;-79
2023/10/15 11:03:06;;;;;;;9.00;3.45;;;;;;;9.32;92.43;102248.03;6219231;23;20017;-79
2023/10/15 11:05:34;;;;;;;12.55;7.78;;;;;;;9.29;93.02;102246.16;6218809;23;20017;-79
2023/10/15 11:08:00;;;;;;;7.63;6.13;;;;;;;9.25;94.33;102240.88;6219109;23;20443;-79
2023/10/15 11:10:31;;;;;;;7.97;4.65;;;;;;;9.22;94.57;102243.56;6191222;23;20101;-83
2023/10/15 11:12:59;;;;;;;8.13;4.95;;;;;;;9.14;95.26;102245.56;6191546;23;20336;-84
2023/10/15 11:15:26;;;;;;;9.00;4.82;;;;;;;9.08;94.74;102252.44;6194598;23;20045;-80
2023/10/15 11:17:59;;;;;;;6.93;4.45;;;;;;;9.08;96.35;102259.66;6222107;23;20013;-84
2023/10/15 11:20:30;;;;;;;5.38;1.50;;;;;;;9.04;96.40;102249.03;6221850;23;20368;-79
2023/10/15 11:22:59;;;;;;;1.77;1.65;;;;;;;9.09;96.48;102251.28;6222341;23;20013;-79
2023/10/15 11:25:26;;;;;;;2.42;0.68;;;;;;;9.09;96.29;102250.53;6221517;23;20984;-79
2023/10/15 11:27:53;;;;;;;2.17;0.82;;;;;;;9.07;97.92;102239.53;6221548;23;20080;-79
2023/10/15 11:30:21;;;;;;;4.50;1.05;;;;;;;9.17;97.58;102236.03;6220379;23;20076;-79
2023/10/15 11:32:51;;;;;;;2.72;0.88;;;;;;;9.16;96.46;102240.59;6219618;23;20451;-79
2023/10/15 11:35:18;;;;;;;0.75;0.60;;;;;;;9.24;98.04;102243.94;6219449;23;20076;-79
2023/10/15 11:37:50;;;;;;;1.42;0.70;;;;;;;9.37;96.99;102242.31;6219543;23;20534;-79
2023/10/15 11:40:20;;;;;;;4.18;0.40;;;;;;;9.37;95.00;102239.66;6192783;23;20514;-79
2023/10/15 11:42:54;;;;;;;0.60;0.30;;;;;;;9.40;95.97;102241.50;6219205;23;20013;-78
2023/10/15 11:45:30;;;;;;;2.80;1.10;;;;;;;9.49;96.39;102238.41;6219531;23;20029;-79
2023/10/15 11:47:58;;;;;;;4.00;2.03;;;;;;;9.55;95.74;102236.81;6220764;23;20037;-78
2023/10/15 11:50:25;;;;;;;1.20;0.70;;;;;;;9.55;93.98;102242.91;6194847;23;20017;-79
2023/10/15 11:52:54;;;;;;;4.72;1.40;;;;;;;9.61;94.61;102240.53;6222274;23;20100;-79
2023/10/15 11:55:22;;;;;;;1.67;1.20;;;;;;;9.62;94.64;102240.13;6221445;23;20457;-79